sensor_id;sensor_type;location;lat;lon;timestamp;temperature;humidity
47626;DHT22;33342;45.574;9.252;2023-01-25T00:00:49;10.80;99.90
47626;DHT22;33342;45.574;9.252;2023-01-25T00:03:16;10.90;99.90
47626;DHT22;33342;45.574;9.252;2023-01-25T00:05:43;10.90;99.90
47626;DHT22;33342;45.574;9.252;2023-01-25T00:08:10;10.80;99.90
47626;DHT22;33342;45.574;9.252;2023-01-25T00:10:37;10.80;99.90
47626;DHT22;33342;45.574;9.252;2023-01-25T00:13:04;10.80;99.90
47626;DHT22;33342;45.574;9.252;2023-01-25T00:15:31;10.80;99.90
47626;DHT22;33342;45.574;9.252;2023-01-25T00:17:58;10.80;99.90
47626;DHT22;33342;45.574;9.252;2023-01-25T00:20:25;10.80;99.90
47626;DHT22;33342;45.574;9.252;2023-01-25T00:22:52;10.80;99.90
47626;DHT22;33342;45.574;9.252;2023-01-25T00:25:19;10.80;99.90
47626;DHT22;33342;45.574;9.252;2023-01-25T00:27:46;10.80;99.90
47626;DHT22;33342;45.574;9.252;2023-01-25T00:30:15;10.80;99.90
47626;DHT22;33342;45.574;9.252;2023-01-25T00:33:01;10.80;99.90
47626;DHT22;33342;45.574;9.252;2023-01-25T00:35:33;10.80;99.90
47626;DHT22;33342;45.574;9.252;2023-01-25T00:38:01;10.80;99.90
47626;DHT22;33342;45.574;9.252;2023-01-25T00:40:32;10.80;99.90
47626;DHT22;33342;45.574;9.252;2023-01-25T00:42:59;10.80;99.90
47626;DHT22;33342;45.574;9.252;2023-01-25T00:45:26;10.80;99.90
47626;DHT22;33342;45.574;9.252;2023-01-25T00:47:54;10.80;99.90
47626;DHT22;33342;45.574;9.252;2023-01-25T00:50:23;10.80;99.90
47626;DHT22;33342;45.574;9.252;2023-01-25T00:52:50;10.80;99.90
47626;DHT22;33342;45.574;9.252;2023-01-25T00:55:17;10.80;99.90
47626;DHT22;33342;45.574;9.252;2023-01-25T00:57:47;10.80;99.90
47626;DHT22;33342;45.574;9.252;2023-01-25T01:00:14;10.80;99.90
47626;DHT22;33342;45.574;9.252;2023-01-25T01:02:41;10.70;99.90
47626;DHT22;33342;45.574;9.252;2023-01-25T01:05:08;10.70;99.90
47626;DHT22;33342;45.574;9.252;2023-01-25T01:07:36;10.70;99.90
47626;DHT22;33342;45.574;9.252;2023-01-25T01:10:03;10.70;99.90
47626;DHT22;33342;45.574;9.252;2023-01-25T01:12:30;10.70;99.90
47626;DHT22;33342;45.574;9.252;2023-01-25T01:14:57;10.70;99.90
47626;DHT22;33342;45.574;9.252;2023-01-25T01:17:25;10.70;99.90
47626;DHT22;33342;45.574;9.252;2023-01-25T01:19:52;10.70;99.90
47626;DHT22;33342;45.574;9.252;2023-01-25T01:22:19;10.70;99.90
47626;DHT22;33342;45.574;9.252;2023-01-25T01:24:47;10.70;99.90
47626;DHT22;33342;45.574;9.252;2023-01-25T01:27:15;10.70;99.90
47626;DHT22;33342;45.574;9.252;2023-01-25T01:29:42;10.60;99.90
47626;DHT22;33342;45.574;9.252;2023-01-25T01:32:09;10.60;99.90
47626;DHT22;33342;45.574;9.252;2023-01-25T01:34:36;10.60;99.90
47626;DHT22;33342;45.574;9.252;2023-01-25T01:37:03;10.60;99.90
47626;DHT22;33342;45.574;9.252;2023-01-25T01:39:30;10.60;99.90
47626;DHT22;33342;45.574;9.252;2023-01-25T01:41:57;10.60;99.90
47626;DHT22;33342;45.574;9.252;2023-01-25T01:44:52;10.60;99.90
47626;DHT22;33342;45.574;9.252;2023-01-25T01:47:29;10.60;99.90
47626;DHT22;33342;45.574;9.252;2023-01-25T01:50:08;10.60;99.90
47626;DHT22;33342;45.574;9.252;2023-01-25T01:52:37;10.60;99.90
47626;DHT22;33342;45.574;9.252;2023-01-25T01:55:09;10.60;99.90
47626;DHT22;33342;45.574;9.252;2023-01-25T01:57:43;10.60;99.90
47626;DHT22;33342;45.574;9.252;2023-01-25T02:00:18;10.60;99.90
47626;DHT22;33342;45.574;9.252;2023-01-25T02:02:48;10.60;99.90
47626;DHT22;33342;45.574;9.252;2023-01-25T02:05:48;10.50;99.90
47626;DHT22;33342;45.574;9.252;2023-01-25T02:08:17;10.60;99.90
47626;DHT22;33342;45.574;9.252;2023-01-25T02:10:47;10.60;99.90
47626;DHT22;33342;45.574;9.252;2023-01-25T02:13:17;10.60;99.90
47626;DHT22;33342;45.574;9.252;2023-01-25T02:15:48;10.60;99.90
47626;DHT22;33342;45.574;9.252;2023-01-25T02:18:17;10.60;99.90
47626;DHT22;33342;45.574;9.252;2023-01-25T02:20:47;10.60;99.90
47626;DHT22;33342;45.574;9.252;2023-01-25T02:25:46;10.60;99.90
47626;DHT22;33342;45.574;9.252;2023-01-25T02:28:20;10.60;99.90
47626;DHT22;33342;45.574;9.252;2023-01-25T02:30:48;10.60;99.90
47626;DHT22;33342;45.574;9.252;2023-01-25T02:33:16;10.60;99.90
47626;DHT22;33342;45.574;9.252;2023-01-25T02:35:49;10.60;99.90
47626;DHT22;33342;45.574;9.252;2023-01-25T02:38:19;10.60;99.90
47626;DHT22;33342;45.574;9.252;2023-01-25T02:40:55;10.60;99.90
47626;DHT22;33342;45.574;9.252;2023-01-25T02:43:27;10.60;99.90
47626;DHT22;33342;45.574;9.252;2023-01-25T02:46:01;10.60;99.90
47626;DHT22;33342;45.574;9.252;2023-01-25T02:48:29;10.60;99.90
47626;DHT22;33342;45.574;9.252;2023-01-25T02:50:56;10.60;99.90
47626;DHT22;33342;45.574;9.252;2023-01-25T02:53:23;10.60;99.90
47626;DHT22;33342;45.574;9.252;2023-01-25T02:55:50;10.60;99.90
47626;DHT22;33342;45.574;9.252;2023-01-25T02:58:17;10.60;99.90
47626;DHT22;33342;45.574;9.252;2023-01-25T03:00:44;10.60;99.90
47626;DHT22;33342;45.574;9.252;2023-01-25T03:03:11;10.60;99.90
47626;DHT22;33342;45.574;9.252;2023-01-25T03:05:38;10.60;99.90
47626;DHT22;33342;45.574;9.252;2023-01-25T03:08:06;10.60;99.90
47626;DHT22;33342;45.574;9.252;2023-01-25T03:10:33;10.60;99.90
47626;DHT22;33342;45.574;9.252;2023-01-25T03:13:00;10.60;99.90
47626;DHT22;33342;45.574;9.252;2023-01-25T03:15:27;10.60;99.90
47626;DHT22;33342;45.574;9.252;2023-01-25T03:17:55;10.60;99.90
47626;DHT22;33342;45.574;9.252;2023-01-25T03:20:22;10.60;99.90
47626;DHT22;33342;45.574;9.252;2023-01-25T03:22:49;10.60;99.90
47626;DHT22;33342;45.574;9.252;2023-01-25T03:25:16;10.60;99.90
47626;DHT22;33342;45.574;9.252;2023-01-25T03:27:53;10.60;99.90
47626;DHT22;33342;45.574;9.252;2023-01-25T03:30:21;10.70;99.90
47626;DHT22;33342;45.574;9.252;2023-01-25T03:32:48;10.60;99.90
47626;DHT22;33342;45.574;9.252;2023-01-25T03:35:18;10.60;99.90
47626;DHT22;33342;45.574;9.252;2023-01-25T03:37:46;10.60;99.90
47626;DHT22;33342;45.574;9.252;2023-01-25T03:40:13;10.60;99.90
47626;DHT22;33342;45.574;9.252;2023-01-25T03:42:44;10.50;99.90
47626;DHT22;33342;45.574;9.252;2023-01-25T03:45:11;10.50;99.90
47626;DHT22;33342;45.574;9.252;2023-01-25T03:47:40;10.50;99.90
47626;DHT22;33342;45.574;9.252;2023-01-25T03:50:09;10.50;99.90
47626;DHT22;33342;45.574;9.252;2023-01-25T03:52:44;10.40;99.90
47626;DHT22;33342;45.574;9.252;2023-01-25T03:55:34;10.40;99.90
47626;DHT22;33342;45.574;9.252;2023-01-25T03:58:01;10.40;99.90
47626;DHT22;33342;45.574;9.252;2023-01-25T04:00:28;10.40;99.90
47626;DHT22;33342;45.574;9.252;2023-01-25T04:02:59;10.40;99.90
47626;DHT22;33342;45.574;9.252;2023-01-25T04:05:27;10.30;99.90
47626;DHT22;33342;45.574;9.252;2023-01-25T04:07:54;10.30;99.90
47626;DHT22;33342;45.574;9.252;2023-01-25T04:10:29;10.30;99.90
47626;DHT22;33342;45.574;9.252;2023-01-25T04:12:56;10.30;99.90
47626;DHT22;33342;45.574;9.252;2023-01-25T04:15:23;10.30;99.90
47626;DHT22;33342;45.574;9.252;2023-01-25T04:17:51;10.30;99.90
47626;DHT22;33342;45.574;9.252;2023-01-25T04:20:22;10.30;99.90
47626;DHT22;33342;45.574;9.252;2023-01-25T04:22:50;10.30;99.90
47626;DHT22;33342;45.574;9.252;2023-01-25T04:25:19;10.30;99.90
47626;DHT22;33342;45.574;9.252;2023-01-25T04:27:51;10.30;99.90
47626;DHT22;33342;45.574;9.252;2023-01-25T04:30:19;10.30;99.90
47626;DHT22;33342;45.574;9.252;2023-01-25T04:32:48;10.30;99.90
47626;DHT22;33342;45.574;9.252;2023-01-25T04:35:25;10.20;99.90
47626;DHT22;33342;45.574;9.252;2023-01-25T04:37:54;10.20;99.90
47626;DHT22;33342;45.574;9.252;2023-01-25T04:40:27;10.10;99.90
47626;DHT22;33342;45.574;9.252;2023-01-25T04:42:54;10.20;99.90
47626;DHT22;33342;45.574;9.252;2023-01-25T04:45:23;10.10;99.90
47626;DHT22;33342;45.574;9.252;2023-01-25T04:47:56;10.10;99.90
47626;DHT22;33342;45.574;9.252;2023-01-25T04:50:25;10.10;99.90
47626;DHT22;33342;45.574;9.252;2023-01-25T04:52:52;10.00;99.90
47626;DHT22;33342;45.574;9.252;2023-01-25T04:55:21;10.00;99.90
47626;DHT22;33342;45.574;9.252;2023-01-25T04:57:50;10.00;99.90
47626;DHT22;33342;45.574;9.252;2023-01-25T05:00:18;10.00;99.90
47626;DHT22;33342;45.574;9.252;2023-01-25T05:02:48;10.00;99.90
47626;DHT22;33342;45.574;9.252;2023-01-25T05:05:15;9.90;99.90
47626;DHT22;33342;45.574;9.252;2023-01-25T05:07:45;9.90;99.90
47626;DHT22;33342;45.574;9.252;2023-01-25T05:10:12;9.90;99.90
47626;DHT22;33342;45.574;9.252;2023-01-25T05:12:52;9.90;99.90
47626;DHT22;33342;45.574;9.252;2023-01-25T05:15:19;9.90;99.90
47626;DHT22;33342;45.574;9.252;2023-01-25T05:17:46;9.90;99.90
47626;DHT22;33342;45.574;9.252;2023-01-25T05:20:13;9.80;99.90
47626;DHT22;33342;45.574;9.252;2023-01-25T05:22:41;9.70;99.90
47626;DHT22;33342;45.574;9.252;2023-01-25T05:25:08;9.70;99.90
47626;DHT22;33342;45.574;9.252;2023-01-25T05:27:56;9.70;99.90
47626;DHT22;33342;45.574;9.252;2023-01-25T05:30:43;9.70;99.90
47626;DHT22;33342;45.574;9.252;2023-01-25T05:33:20;9.70;99.90
47626;DHT22;33342;45.574;9.252;2023-01-25T05:35:47;9.70;99.90
47626;DHT22;33342;45.574;9.252;2023-01-25T05:38:15;9.80;99.90
47626;DHT22;33342;45.574;9.252;2023-01-25T05:40:42;9.90;99.90
47626;DHT22;33342;45.574;9.252;2023-01-25T05:43:09;9.90;99.90
47626;DHT22;33342;45.574;9.252;2023-01-25T05:45:38;9.90;99.90
47626;DHT22;33342;45.574;9.252;2023-01-25T05:48:07;9.90;99.90
47626;DHT22;33342;45.574;9.252;2023-01-25T05:50:34;10.00;99.90
47626;DHT22;33342;45.574;9.252;2023-01-25T05:53:10;10.00;99.90
47626;DHT22;33342;45.574;9.252;2023-01-25T05:55:38;10.00;99.90
47626;DHT22;33342;45.574;9.252;2023-01-25T05:58:12;10.00;99.90
47626;DHT22;33342;45.574;9.252;2023-01-25T06:00:40;10.00;99.90
47626;DHT22;33342;45.574;9.252;2023-01-25T06:03:08;10.00;99.90
47626;DHT22;33342;45.574;9.252;2023-01-25T06:05:37;9.90;99.90
47626;DHT22;33342;45.574;9.252;2023-01-25T06:08:04;9.90;99.90
47626;DHT22;33342;45.574;9.252;2023-01-25T06:10:41;9.90;99.90
47626;DHT22;33342;45.574;9.252;2023-01-25T06:13:08;9.90;99.90
47626;DHT22;33342;45.574;9.252;2023-01-25T06:15:35;9.90;99.90
47626;DHT22;33342;45.574;9.252;2023-01-25T06:18:32;9.90;99.90
47626;DHT22;33342;45.574;9.252;2023-01-25T06:21:22;9.90;99.90
47626;DHT22;33342;45.574;9.252;2023-01-25T06:23:49;9.90;99.90
47626;DHT22;33342;45.574;9.252;2023-01-25T06:26:16;9.90;99.90
47626;DHT22;33342;45.574;9.252;2023-01-25T06:28:43;9.80;99.90
47626;DHT22;33342;45.574;9.252;2023-01-25T06:31:16;9.80;99.90
47626;DHT22;33342;45.574;9.252;2023-01-25T06:33:47;9.70;99.90
47626;DHT22;33342;45.574;9.252;2023-01-25T06:36:16;9.80;99.90
47626;DHT22;33342;45.574;9.252;2023-01-25T06:38:48;9.80;99.90
47626;DHT22;33342;45.574;9.252;2023-01-25T06:41:17;9.80;99.90
47626;DHT22;33342;45.574;9.252;2023-01-25T06:43:44;9.70;99.90
47626;DHT22;33342;45.574;9.252;2023-01-25T06:46:12;9.70;99.90
47626;DHT22;33342;45.574;9.252;2023-01-25T06:48:39;9.70;99.90
47626;DHT22;33342;45.574;9.252;2023-01-25T06:51:10;9.70;99.90
47626;DHT22;33342;45.574;9.252;2023-01-25T06:53:40;9.70;99.90
47626;DHT22;33342;45.574;9.252;2023-01-25T06:56:16;9.70;99.90
47626;DHT22;33342;45.574;9.252;2023-01-25T06:58:44;9.70;99.90
47626;DHT22;33342;45.574;9.252;2023-01-25T07:01:14;9.60;99.90
47626;DHT22;33342;45.574;9.252;2023-01-25T07:03:42;9.50;99.90
47626;DHT22;33342;45.574;9.252;2023-01-25T07:06:09;9.50;99.90
47626;DHT22;33342;45.574;9.252;2023-01-25T07:08:37;9.40;99.90
47626;DHT22;33342;45.574;9.252;2023-01-25T07:11:07;9.40;99.90
47626;DHT22;33342;45.574;9.252;2023-01-25T07:13:38;9.30;99.90
47626;DHT22;33342;45.574;9.252;2023-01-25T07:16:07;9.30;99.90
47626;DHT22;33342;45.574;9.252;2023-01-25T07:18:34;9.30;99.90
47626;DHT22;33342;45.574;9.252;2023-01-25T07:21:06;9.30;99.90
47626;DHT22;33342;45.574;9.252;2023-01-25T07:23:34;9.20;99.90
47626;DHT22;33342;45.574;9.252;2023-01-25T07:26:05;9.20;99.90
47626;DHT22;33342;45.574;9.252;2023-01-25T07:28:32;9.30;99.90
47626;DHT22;33342;45.574;9.252;2023-01-25T07:31:04;9.30;99.90
47626;DHT22;33342;45.574;9.252;2023-01-25T07:33:32;9.30;99.90
47626;DHT22;33342;45.574;9.252;2023-01-25T07:36:04;9.30;99.90
47626;DHT22;33342;45.574;9.252;2023-01-25T07:38:32;9.30;99.90
47626;DHT22;33342;45.574;9.252;2023-01-25T07:41:00;9.30;99.90
47626;DHT22;33342;45.574;9.252;2023-01-25T07:43:27;9.30;99.90
47626;DHT22;33342;45.574;9.252;2023-01-25T07:46:04;9.30;99.90
47626;DHT22;33342;45.574;9.252;2023-01-25T07:48:32;9.30;99.90
47626;DHT22;33342;45.574;9.252;2023-01-25T07:51:01;9.40;99.90
47626;DHT22;33342;45.574;9.252;2023-01-25T07:53:41;9.40;99.90
47626;DHT22;33342;45.574;9.252;2023-01-25T07:56:10;9.50;99.90
47626;DHT22;33342;45.574;9.252;2023-01-25T07:58:37;9.50;99.90
47626;DHT22;33342;45.574;9.252;2023-01-25T08:01:06;9.60;99.90
47626;DHT22;33342;45.574;9.252;2023-01-25T08:03:34;9.60;99.90
47626;DHT22;33342;45.574;9.252;2023-01-25T08:06:02;9.60;99.90
47626;DHT22;33342;45.574;9.252;2023-01-25T08:08:34;9.60;99.90
47626;DHT22;33342;45.574;9.252;2023-01-25T08:11:10;9.60;99.90
47626;DHT22;33342;45.574;9.252;2023-01-25T08:13:40;9.60;99.90
47626;DHT22;33342;45.574;9.252;2023-01-25T08:16:08;9.70;99.90
47626;DHT22;33342;45.574;9.252;2023-01-25T08:18:35;9.70;99.90
47626;DHT22;33342;45.574;9.252;2023-01-25T08:21:03;9.70;99.90
47626;DHT22;33342;45.574;9.252;2023-01-25T08:23:30;9.70;99.90
47626;DHT22;33342;45.574;9.252;2023-01-25T08:26:07;9.80;99.90
47626;DHT22;33342;45.574;9.252;2023-01-25T08:28:35;9.80;99.90
47626;DHT22;33342;45.574;9.252;2023-01-25T08:31:15;9.80;99.90
47626;DHT22;33342;45.574;9.252;2023-01-25T08:33:42;9.80;99.90
47626;DHT22;33342;45.574;9.252;2023-01-25T08:36:12;9.70;99.90
47626;DHT22;33342;45.574;9.252;2023-01-25T08:38:40;9.70;99.90
47626;DHT22;33342;45.574;9.252;2023-01-25T08:41:10;9.70;99.90
47626;DHT22;33342;45.574;9.252;2023-01-25T08:43:37;9.70;99.90
47626;DHT22;33342;45.574;9.252;2023-01-25T08:46:05;9.70;99.90
47626;DHT22;33342;45.574;9.252;2023-01-25T08:48:32;9.70;99.90
47626;DHT22;33342;45.574;9.252;2023-01-25T08:50:59;9.70;99.90
47626;DHT22;33342;45.574;9.252;2023-01-25T08:53:28;9.80;99.90
47626;DHT22;33342;45.574;9.252;2023-01-25T08:55:55;9.80;99.90
47626;DHT22;33342;45.574;9.252;2023-01-25T08:58:22;9.80;99.90
47626;DHT22;33342;45.574;9.252;2023-01-25T09:00:48;9.80;99.90
47626;DHT22;33342;45.574;9.252;2023-01-25T09:03:15;9.80;99.90
47626;DHT22;33342;45.574;9.252;2023-01-25T09:05:44;9.90;99.90
47626;DHT22;33342;45.574;9.252;2023-01-25T09:08:11;9.90;99.90
47626;DHT22;33342;45.574;9.252;2023-01-25T09:10:38;10.00;99.90
47626;DHT22;33342;45.574;9.252;2023-01-25T09:13:05;10.00;99.90
47626;DHT22;33342;45.574;9.252;2023-01-25T09:15:34;10.00;99.90
47626;DHT22;33342;45.574;9.252;2023-01-25T09:18:02;10.00;99.90
47626;DHT22;33342;45.574;9.252;2023-01-25T09:20:29;10.10;99.90
47626;DHT22;33342;45.574;9.252;2023-01-25T09:23:00;10.10;99.90
47626;DHT22;33342;45.574;9.252;2023-01-25T09:25:27;10.00;99.90
47626;DHT22;33342;45.574;9.252;2023-01-25T09:27:54;10.10;99.90
47626;DHT22;33342;45.574;9.252;2023-01-25T09:30:21;10.10;99.90
47626;DHT22;33342;45.574;9.252;2023-01-25T09:33:04;10.10;99.90
47626;DHT22;33342;45.574;9.252;2023-01-25T09:35:36;10.20;99.90
47626;DHT22;33342;45.574;9.252;2023-01-25T09:38:03;10.30;99.90
47626;DHT22;33342;45.574;9.252;2023-01-25T09:40:32;10.30;99.90
47626;DHT22;33342;45.574;9.252;2023-01-25T09:45:49;10.40;99.90
47626;DHT22;33342;45.574;9.252;2023-01-25T09:48:37;10.40;99.90
47626;DHT22;33342;45.574;9.252;2023-01-25T09:54:24;10.40;99.90
47626;DHT22;33342;45.574;9.252;2023-01-25T09:56:51;10.40;99.90
47626;DHT22;33342;45.574;9.252;2023-01-25T09:59:20;10.40;99.90
47626;DHT22;33342;45.574;9.252;2023-01-25T10:01:56;10.50;99.90
47626;DHT22;33342;45.574;9.252;2023-01-25T10:07:08;10.50;99.90
47626;DHT22;33342;45.574;9.252;2023-01-25T10:09:49;10.50;99.90
47626;DHT22;33342;45.574;9.252;2023-01-25T10:12:22;10.50;99.90
47626;DHT22;33342;45.574;9.252;2023-01-25T10:14:50;10.50;99.90
47626;DHT22;33342;45.574;9.252;2023-01-25T10:17:38;10.50;99.90
47626;DHT22;33342;45.574;9.252;2023-01-25T10:22:50;10.50;99.90
47626;DHT22;33342;45.574;9.252;2023-01-25T10:25:37;10.50;99.90
47626;DHT22;33342;45.574;9.252;2023-01-25T10:31:17;10.60;99.90
47626;DHT22;33342;45.574;9.252;2023-01-25T10:33:46;10.60;99.90
47626;DHT22;33342;45.574;9.252;2023-01-25T10:36:16;10.60;99.90
47626;DHT22;33342;45.574;9.252;2023-01-25T10:38:46;10.70;99.90
47626;DHT22;33342;45.574;9.252;2023-01-25T10:41:35;10.70;99.90
47626;DHT22;33342;45.574;9.252;2023-01-25T10:44:02;10.70;99.90
47626;DHT22;33342;45.574;9.252;2023-01-25T10:47:12;10.80;99.90
47626;DHT22;33342;45.574;9.252;2023-01-25T10:49:45;10.80;99.90
47626;DHT22;33342;45.574;9.252;2023-01-25T10:54:40;11.00;99.90
47626;DHT22;33342;45.574;9.252;2023-01-25T10:57:08;11.10;99.90
47626;DHT22;33342;45.574;9.252;2023-01-25T10:59:38;11.10;99.90
47626;DHT22;33342;45.574;9.252;2023-01-25T11:07:45;11.20;99.90
47626;DHT22;33342;45.574;9.252;2023-01-25T11:10:31;11.20;99.90
47626;DHT22;33342;45.574;9.252;2023-01-25T11:13:31;11.20;99.90
47626;DHT22;33342;45.574;9.252;2023-01-25T11:18:30;11.30;99.90
47626;DHT22;33342;45.574;9.252;2023-01-25T11:21:13;11.30;99.90
47626;DHT22;33342;45.574;9.252;2023-01-25T11:23:42;11.30;99.90
47626;DHT22;33342;45.574;9.252;2023-01-25T11:26:17;11.40;99.90
47626;DHT22;33342;45.574;9.252;2023-01-25T11:28:45;11.40;99.90
47626;DHT22;33342;45.574;9.252;2023-01-25T11:31:21;11.40;99.90
47626;DHT22;33342;45.574;9.252;2023-01-25T11:33:48;11.40;99.90
47626;DHT22;33342;45.574;9.252;2023-01-25T11:36:55;11.40;99.90
47626;DHT22;33342;45.574;9.252;2023-01-25T11:42:14;11.40;99.90
47626;DHT22;33342;45.574;9.252;2023-01-25T11:53:36;11.50;99.90
47626;DHT22;33342;45.574;9.252;2023-01-25T12:07:02;11.40;99.90
47626;DHT22;33342;45.574;9.252;2023-01-25T12:09:58;11.40;99.90
47626;DHT22;33342;45.574;9.252;2023-01-25T12:12:43;11.30;99.90
47626;DHT22;33342;45.574;9.252;2023-01-25T12:15:26;11.30;99.90
47626;DHT22;33342;45.574;9.252;2023-01-25T12:23:16;11.40;99.90
47626;DHT22;33342;45.574;9.252;2023-01-25T12:28:27;11.40;99.90
47626;DHT22;33342;45.574;9.252;2023-01-25T12:31:06;11.40;99.90
47626;DHT22;33342;45.574;9.252;2023-01-25T12:33:41;11.40;99.90
47626;DHT22;33342;45.574;9.252;2023-01-25T12:36:17;11.50;99.90
47626;DHT22;33342;45.574;9.252;2023-01-25T12:38:59;11.50;99.90
47626;DHT22;33342;45.574;9.252;2023-01-25T12:41:37;11.60;99.90
47626;DHT22;33342;45.574;9.252;2023-01-25T12:44:26;11.60;99.90
47626;DHT22;33342;45.574;9.252;2023-01-25T12:47:19;11.60;99.90
47626;DHT22;33342;45.574;9.252;2023-01-25T12:52:36;11.50;99.90
47626;DHT22;33342;45.574;9.252;2023-01-25T12:55:12;11.60;99.90
47626;DHT22;33342;45.574;9.252;2023-01-25T13:06:03;11.80;99.90
47626;DHT22;33342;45.574;9.252;2023-01-25T13:08:53;11.80;99.90
47626;DHT22;33342;45.574;9.252;2023-01-25T13:11:22;11.80;99.90
47626;DHT22;33342;45.574;9.252;2023-01-25T13:13:51;11.80;99.90
47626;DHT22;33342;45.574;9.252;2023-01-25T13:18:57;11.80;99.90
47626;DHT22;33342;45.574;9.252;2023-01-25T13:26:37;11.80;99.90
47626;DHT22;33342;45.574;9.252;2023-01-25T13:31:58;11.80;99.90
47626;DHT22;33342;45.574;9.252;2023-01-25T13:37:32;11.70;99.90
47626;DHT22;33342;45.574;9.252;2023-01-25T13:41:19;11.80;99.90
47626;DHT22;33342;45.574;9.252;2023-01-25T13:43:17;11.80;99.90
47626;DHT22;33342;45.574;9.252;2023-01-25T13:45:47;11.80;99.90
47626;DHT22;33342;45.574;9.252;2023-01-25T13:48:22;11.80;99.90
47626;DHT22;33342;45.574;9.252;2023-01-25T13:51:06;11.90;99.90
47626;DHT22;33342;45.574;9.252;2023-01-25T13:53:36;12.20;99.90
47626;DHT22;33342;45.574;9.252;2023-01-25T13:56:24;12.60;99.90
47626;DHT22;33342;45.574;9.252;2023-01-25T13:58:51;13.00;99.90
47626;DHT22;33342;45.574;9.252;2023-01-25T14:01:19;13.40;99.90
47626;DHT22;33342;45.574;9.252;2023-01-25T14:03:53;13.80;99.90
47626;DHT22;33342;45.574;9.252;2023-01-25T14:06:27;14.10;99.90
47626;DHT22;33342;45.574;9.252;2023-01-25T14:08:56;14.40;99.90
47626;DHT22;33342;45.574;9.252;2023-01-25T14:11:26;14.50;99.90
47626;DHT22;33342;45.574;9.252;2023-01-25T14:14:14;14.50;99.90
47626;DHT22;33342;45.574;9.252;2023-01-25T14:16:43;14.40;99.90
47626;DHT22;33342;45.574;9.252;2023-01-25T14:19:24;14.40;99.90
47626;DHT22;33342;45.574;9.252;2023-01-25T14:22:23;14.30;99.90
47626;DHT22;33342;45.574;9.252;2023-01-25T14:25:17;14.30;99.90
47626;DHT22;33342;45.574;9.252;2023-01-25T14:30:17;14.10;99.90
47626;DHT22;33342;45.574;9.252;2023-01-25T14:32:44;14.00;99.90
47626;DHT22;33342;45.574;9.252;2023-01-25T14:35:43;13.90;99.90
47626;DHT22;33342;45.574;9.252;2023-01-25T14:38:38;13.90;99.90
47626;DHT22;33342;45.574;9.252;2023-01-25T14:41:18;14.00;99.90
47626;DHT22;33342;45.574;9.252;2023-01-25T14:43:51;14.20;99.90
47626;DHT22;33342;45.574;9.252;2023-01-25T14:46:32;14.30;99.90
47626;DHT22;33342;45.574;9.252;2023-01-25T14:51:48;14.90;99.90
47626;DHT22;33342;45.574;9.252;2023-01-25T14:54:21;15.10;99.90
47626;DHT22;33342;45.574;9.252;2023-01-25T14:56:52;15.40;99.90
47626;DHT22;33342;45.574;9.252;2023-01-25T14:59:36;15.70;99.90
47626;DHT22;33342;45.574;9.252;2023-01-25T15:02:20;16.00;99.90
47626;DHT22;33342;45.574;9.252;2023-01-25T15:04:58;16.30;99.90
47626;DHT22;33342;45.574;9.252;2023-01-25T15:10:29;16.50;99.90
47626;DHT22;33342;45.574;9.252;2023-01-25T15:13:02;16.60;99.90
47626;DHT22;33342;45.574;9.252;2023-01-25T15:15:56;16.60;99.90
47626;DHT22;33342;45.574;9.252;2023-01-25T15:18:44;16.50;99.90
47626;DHT22;33342;45.574;9.252;2023-01-25T15:23:47;16.40;99.90
47626;DHT22;33342;45.574;9.252;2023-01-25T15:26:24;16.30;99.90
47626;DHT22;33342;45.574;9.252;2023-01-25T15:28:54;16.20;99.90
47626;DHT22;33342;45.574;9.252;2023-01-25T15:31:26;16.10;99.90
47626;DHT22;33342;45.574;9.252;2023-01-25T15:33:55;15.90;99.90
47626;DHT22;33342;45.574;9.252;2023-01-25T15:36:23;15.80;99.90
47626;DHT22;33342;45.574;9.252;2023-01-25T15:38:50;15.50;99.90
47626;DHT22;33342;45.574;9.252;2023-01-25T15:41:17;15.10;99.90
47626;DHT22;33342;45.574;9.252;2023-01-25T15:43:46;14.70;99.90
47626;DHT22;33342;45.574;9.252;2023-01-25T15:46:25;14.40;99.90
47626;DHT22;33342;45.574;9.252;2023-01-25T15:48:54;14.10;99.90
47626;DHT22;33342;45.574;9.252;2023-01-25T15:51:21;13.80;99.90
47626;DHT22;33342;45.574;9.252;2023-01-25T15:53:49;13.60;99.90
47626;DHT22;33342;45.574;9.252;2023-01-25T15:56:22;13.50;99.90
47626;DHT22;33342;45.574;9.252;2023-01-25T15:58:52;13.30;99.90
47626;DHT22;33342;45.574;9.252;2023-01-25T16:01:21;13.20;99.90
47626;DHT22;33342;45.574;9.252;2023-01-25T16:03:48;13.00;99.90
47626;DHT22;33342;45.574;9.252;2023-01-25T16:06:32;12.90;99.90
47626;DHT22;33342;45.574;9.252;2023-01-25T16:09:08;12.80;99.90
47626;DHT22;33342;45.574;9.252;2023-01-25T16:11:38;12.70;99.90
47626;DHT22;33342;45.574;9.252;2023-01-25T16:14:05;12.60;99.90
47626;DHT22;33342;45.574;9.252;2023-01-25T16:16:33;12.60;99.90
47626;DHT22;33342;45.574;9.252;2023-01-25T16:19:02;12.50;99.90
47626;DHT22;33342;45.574;9.252;2023-01-25T16:21:29;12.40;99.90
47626;DHT22;33342;45.574;9.252;2023-01-25T16:23:56;12.30;99.90
47626;DHT22;33342;45.574;9.252;2023-01-25T16:26:24;12.20;99.90
47626;DHT22;33342;45.574;9.252;2023-01-25T16:28:52;12.20;99.90
47626;DHT22;33342;45.574;9.252;2023-01-25T16:31:19;12.10;99.90
47626;DHT22;33342;45.574;9.252;2023-01-25T16:33:59;12.10;99.90
47626;DHT22;33342;45.574;9.252;2023-01-25T16:36:27;12.00;99.90
47626;DHT22;33342;45.574;9.252;2023-01-25T16:38:54;12.00;99.90
47626;DHT22;33342;45.574;9.252;2023-01-25T16:41:21;11.90;99.90
47626;DHT22;33342;45.574;9.252;2023-01-25T16:43:48;11.90;99.90
47626;DHT22;33342;45.574;9.252;2023-01-25T16:46:17;11.80;99.90
47626;DHT22;33342;45.574;9.252;2023-01-25T16:48:46;11.80;99.90
47626;DHT22;33342;45.574;9.252;2023-01-25T16:51:32;11.80;99.90
47626;DHT22;33342;45.574;9.252;2023-01-25T16:53:59;11.70;99.90
47626;DHT22;33342;45.574;9.252;2023-01-25T16:56:28;11.70;99.90
47626;DHT22;33342;45.574;9.252;2023-01-25T16:58:59;11.70;99.90
47626;DHT22;33342;45.574;9.252;2023-01-25T17:01:27;11.70;99.90
47626;DHT22;33342;45.574;9.252;2023-01-25T17:03:55;11.60;99.90
47626;DHT22;33342;45.574;9.252;2023-01-25T17:06:29;11.60;99.90
47626;DHT22;33342;45.574;9.252;2023-01-25T17:08:58;11.60;99.90
47626;DHT22;33342;45.574;9.252;2023-01-25T17:11:30;11.60;99.90
47626;DHT22;33342;45.574;9.252;2023-01-25T17:13:58;11.50;99.90
47626;DHT22;33342;45.574;9.252;2023-01-25T17:16:28;11.50;99.90
47626;DHT22;33342;45.574;9.252;2023-01-25T17:18:56;11.50;99.90
47626;DHT22;33342;45.574;9.252;2023-01-25T17:21:23;11.40;99.90
47626;DHT22;33342;45.574;9.252;2023-01-25T17:23:51;11.40;99.90
47626;DHT22;33342;45.574;9.252;2023-01-25T17:26:20;11.40;99.90
47626;DHT22;33342;45.574;9.252;2023-01-25T17:28:47;11.30;99.90
47626;DHT22;33342;45.574;9.252;2023-01-25T17:31:20;11.40;99.90
47626;DHT22;33342;45.574;9.252;2023-01-25T17:33:48;11.30;99.90
47626;DHT22;33342;45.574;9.252;2023-01-25T17:36:15;11.30;99.90